createdAt,value
2022-09-23T00:00:30.199Z,9.80
2022-09-23T00:01:30.237Z,9.77
2022-09-23T00:02:30.209Z,9.75
2022-09-23T00:03:30.185Z,9.77
2022-09-23T00:04:30.146Z,9.77
2022-09-23T00:05:30.145Z,9.74
2022-09-23T00:06:30.136Z,9.73
2022-09-23T00:07:30.135Z,9.71
2022-09-23T00:08:30.120Z,9.71
2022-09-23T00:09:30.098Z,9.68
2022-09-23T00:10:30.086Z,9.68
2022-09-23T00:11:30.087Z,9.68
2022-09-23T00:12:30.066Z,9.70
2022-09-23T00:13:30.055Z,9.65
2022-09-23T00:14:30.040Z,9.63
2022-09-23T00:15:30.046Z,9.63
2022-09-23T00:16:30.096Z,9.63
2022-09-23T00:17:30.016Z,9.63
2022-09-23T00:18:30.007Z,9.62
2022-09-23T00:19:29.980Z,9.62
2022-09-23T00:20:30.007Z,9.59
2022-09-23T00:21:29.987Z,9.55
2022-09-23T00:22:29.965Z,9.50
2022-09-23T00:23:29.947Z,9.48
2022-09-23T00:24:29.937Z,9.44
2022-09-23T00:25:29.933Z,9.44
2022-09-23T00:26:29.939Z,9.44
2022-09-23T00:27:29.907Z,9.40
2022-09-23T00:28:29.889Z,9.40
2022-09-23T00:29:29.910Z,9.38
2022-09-23T00:30:29.997Z,9.40
2022-09-23T00:31:29.905Z,9.38
2022-09-23T00:32:29.849Z,9.38
2022-09-23T00:33:29.860Z,9.38
2022-09-23T00:34:29.849Z,9.37
2022-09-23T00:35:29.844Z,9.34
2022-09-23T00:36:29.823Z,9.35
2022-09-23T00:37:29.810Z,9.37
2022-09-23T00:38:29.800Z,9.32
2022-09-23T00:39:29.801Z,9.34
2022-09-23T00:40:29.814Z,9.32
2022-09-23T00:41:29.759Z,9.32
2022-09-23T00:42:29.721Z,9.31
2022-09-23T00:43:29.740Z,9.31
2022-09-23T00:44:29.731Z,9.30
2022-09-23T00:45:29.753Z,9.27
2022-09-23T00:46:29.776Z,9.27
2022-09-23T00:47:29.700Z,9.24
2022-09-23T00:48:29.681Z,9.23
2022-09-23T00:49:29.688Z,9.22
2022-09-23T00:50:29.663Z,9.19
2022-09-23T00:51:29.668Z,9.22
2022-09-23T00:52:29.643Z,9.19
2022-09-23T00:53:29.651Z,9.19
2022-09-23T00:54:29.605Z,9.19
2022-09-23T00:55:29.611Z,9.16
2022-09-23T00:56:29.625Z,9.15
2022-09-23T00:57:29.589Z,9.12
2022-09-23T00:58:29.582Z,9.08
2022-09-23T00:59:29.571Z,9.06
2022-09-23T01:00:29.564Z,9.06
2022-09-23T01:01:30.324Z,9.01
2022-09-23T01:02:29.599Z,9.00
2022-09-23T01:03:29.522Z,8.98
2022-09-23T01:04:29.531Z,8.97
2022-09-23T01:05:29.503Z,8.97
2022-09-23T01:06:29.494Z,8.96
2022-09-23T01:07:29.482Z,8.98
2022-09-23T01:08:29.483Z,8.97
2022-09-23T01:09:29.462Z,8.98
2022-09-23T01:10:29.448Z,8.96
2022-09-23T01:11:29.450Z,8.96
2022-09-23T01:12:29.397Z,8.91
2022-09-23T01:13:29.431Z,8.91
2022-09-23T01:14:29.414Z,8.89
2022-09-23T01:15:29.425Z,8.88
2022-09-23T01:16:29.414Z,8.88
2022-09-23T01:17:29.387Z,8.88
2022-09-23T01:18:29.348Z,8.86
2022-09-23T01:19:29.365Z,8.88
2022-09-23T01:20:29.335Z,8.86
2022-09-23T01:21:29.344Z,8.86
2022-09-23T01:22:29.333Z,8.83
2022-09-23T01:23:29.299Z,8.82
2022-09-23T01:24:29.300Z,8.79
2022-09-23T01:25:29.303Z,8.78
2022-09-23T01:26:29.295Z,8.76
2022-09-23T01:27:29.274Z,8.79
2022-09-23T01:28:29.294Z,8.78
2022-09-23T01:29:29.259Z,8.75
2022-09-23T01:30:29.287Z,8.78
2022-09-23T01:31:29.245Z,8.79
2022-09-23T01:32:29.217Z,8.76
2022-09-23T01:33:29.205Z,8.76
2022-09-23T01:34:29.185Z,8.75
2022-09-23T01:35:29.216Z,8.73
2022-09-23T01:36:29.169Z,8.73
2022-09-23T01:37:29.144Z,8.70
2022-09-23T01:38:29.144Z,8.68
2022-09-23T01:39:29.126Z,8.71
2022-09-23T01:40:29.176Z,8.75
2022-09-23T01:41:29.104Z,8.75
2022-09-23T01:42:29.091Z,8.73
2022-09-23T01:43:29.086Z,8.76
2022-09-23T01:44:29.076Z,8.76
2022-09-23T01:45:29.074Z,8.73
2022-09-23T01:46:29.055Z,8.71
2022-09-23T01:47:29.074Z,8.71
2022-09-23T01:48:29.052Z,8.70
2022-09-23T01:49:29.031Z,8.70
2022-09-23T01:50:29.024Z,8.68
2022-09-23T01:51:28.995Z,8.68
2022-09-23T01:52:29.013Z,8.65
2022-09-23T01:53:28.986Z,8.64
2022-09-23T01:54:28.975Z,8.61
2022-09-23T01:55:28.969Z,8.58
2022-09-23T01:56:28.956Z,8.57
2022-09-23T01:57:28.953Z,8.58
2022-09-23T01:58:28.926Z,8.55
2022-09-23T01:59:28.918Z,8.57
2022-09-23T02:00:28.912Z,8.55
2022-09-23T02:01:28.911Z,8.50
2022-09-23T02:02:28.894Z,8.47
2022-09-23T02:03:28.873Z,8.49
2022-09-23T02:04:28.878Z,8.49
2022-09-23T02:05:28.858Z,8.49
2022-09-23T02:06:28.847Z,8.46
2022-09-23T02:07:28.847Z,8.47
2022-09-23T02:08:28.849Z,8.46
2022-09-23T02:09:28.807Z,8.46
2022-09-23T02:10:28.809Z,8.46
2022-09-23T02:11:28.774Z,8.45
2022-09-23T02:12:28.778Z,8.42
2022-09-23T02:13:28.771Z,8.42
2022-09-23T02:14:28.763Z,8.40
2022-09-23T02:15:28.747Z,8.40
2022-09-23T02:16:28.777Z,8.40
2022-09-23T02:17:28.716Z,8.40
2022-09-23T02:18:28.720Z,8.39
2022-09-23T02:19:28.719Z,8.39
2022-09-23T02:20:28.698Z,8.39
2022-09-23T02:21:28.675Z,8.37
2022-09-23T02:22:28.699Z,8.36
2022-09-23T02:23:28.659Z,8.32
2022-09-23T02:24:28.668Z,8.31
2022-09-23T02:25:28.639Z,8.29
2022-09-23T02:26:28.639Z,8.31
2022-09-23T02:27:28.638Z,8.29
2022-09-23T02:28:28.620Z,8.29
2022-09-23T02:29:28.600Z,8.29
2022-09-23T02:30:28.609Z,8.31
2022-09-23T02:31:28.590Z,8.28
2022-09-23T02:32:28.624Z,8.25
2022-09-23T02:33:28.557Z,8.24
2022-09-23T02:34:28.559Z,8.22
2022-09-23T02:35:28.541Z,8.22
2022-09-23T02:36:28.530Z,8.21
2022-09-23T02:37:28.517Z,8.21
2022-09-23T02:38:28.497Z,8.18
2022-09-23T02:39:28.477Z,8.17
2022-09-23T02:40:28.556Z,8.14
2022-09-23T02:41:28.470Z,8.12
2022-09-23T02:42:28.465Z,8.13
2022-09-23T02:43:28.460Z,8.14
2022-09-23T02:44:28.442Z,8.13
2022-09-23T02:45:28.528Z,8.12
2022-09-23T02:46:28.407Z,8.13
2022-09-23T02:47:28.408Z,8.13
2022-09-23T02:48:28.389Z,8.13
2022-09-23T02:49:28.413Z,8.12
2022-09-23T02:50:28.391Z,8.10
2022-09-23T02:51:28.361Z,8.10
2022-09-23T02:52:28.363Z,8.07
2022-09-23T02:53:28.343Z,8.06
2022-09-23T02:54:28.342Z,8.04
2022-09-23T02:55:28.341Z,8.03
2022-09-23T02:56:28.297Z,8.04
2022-09-23T02:57:28.301Z,8.03
2022-09-23T02:58:28.293Z,8.00
2022-09-23T02:59:28.303Z,7.99
2022-09-23T03:00:28.279Z,7.99
2022-09-23T03:01:28.280Z,7.95
2022-09-23T03:02:28.332Z,7.95
2022-09-23T03:03:28.249Z,7.91
2022-09-23T03:04:28.232Z,7.91
2022-09-23T03:05:28.233Z,7.91
2022-09-23T03:06:28.203Z,7.91
2022-09-23T03:07:28.205Z,7.88
2022-09-23T03:08:28.205Z,7.88
2022-09-23T03:09:28.173Z,7.86
2022-09-23T03:10:28.164Z,7.88
2022-09-23T03:11:28.156Z,7.88
2022-09-23T03:12:28.144Z,7.88
2022-09-23T03:13:29.521Z,7.89
2022-09-23T03:14:28.125Z,7.88
2022-09-23T03:15:28.134Z,7.88
2022-09-23T03:16:28.129Z,7.85
2022-09-23T03:17:28.094Z,7.84
2022-09-23T03:18:28.075Z,7.86
2022-09-23T03:19:28.086Z,7.85
2022-09-23T03:20:28.041Z,7.86
2022-09-23T03:21:28.076Z,7.86
2022-09-23T03:22:28.038Z,7.86
2022-09-23T03:23:28.043Z,7.85
2022-09-23T03:24:28.045Z,7.84
2022-09-23T03:25:28.005Z,7.81
2022-09-23T03:26:27.994Z,7.79
2022-09-23T03:27:27.986Z,7.79
2022-09-23T03:28:27.977Z,7.76
2022-09-23T03:29:27.965Z,7.77
2022-09-23T03:30:27.966Z,7.77
2022-09-23T03:31:28.027Z,7.77
2022-09-23T03:32:27.948Z,7.79
2022-09-23T03:33:28.776Z,7.79
2022-09-23T03:34:27.908Z,7.77
2022-09-23T03:35:27.936Z,7.77
2022-09-23T03:36:27.895Z,7.79
2022-09-23T03:37:27.878Z,7.76
2022-09-23T03:38:27.886Z,7.76
2022-09-23T03:39:27.856Z,7.74
2022-09-23T03:40:27.915Z,7.74
2022-09-23T03:41:27.847Z,7.73
2022-09-23T03:42:27.830Z,7.74
2022-09-23T03:43:27.867Z,7.71
2022-09-23T03:44:27.790Z,7.71
2022-09-23T03:45:27.835Z,7.71
2022-09-23T03:46:27.797Z,7.69
2022-09-23T03:47:27.761Z,7.67
2022-09-23T03:48:27.778Z,7.67
2022-09-23T03:49:27.757Z,7.67
2022-09-23T03:50:27.789Z,7.67
2022-09-23T03:51:27.733Z,7.67
2022-09-23T03:52:27.718Z,7.63
2022-09-23T03:53:27.738Z,7.62
2022-09-23T03:54:27.698Z,7.63
2022-09-23T03:55:27.688Z,7.63
2022-09-23T03:56:27.688Z,7.62
2022-09-23T03:57:27.675Z,7.60
2022-09-23T03:58:27.648Z,7.58
2022-09-23T03:59:27.649Z,7.58
2022-09-23T04:00:27.630Z,7.60
2022-09-23T04:01:27.703Z,7.60
2022-09-23T04:02:27.648Z,7.58
2022-09-23T04:03:27.638Z,7.60
2022-09-23T04:04:27.619Z,7.58
2022-09-23T04:05:27.590Z,7.58
2022-09-23T04:06:27.570Z,7.58
2022-09-23T04:07:27.559Z,7.58
2022-09-23T04:08:27.550Z,7.58
2022-09-23T04:09:27.577Z,7.58
2022-09-23T04:10:27.516Z,7.60
2022-09-23T04:11:27.658Z,7.60
2022-09-23T04:12:27.510Z,7.62
2022-09-23T04:13:27.500Z,7.60
2022-09-23T04:14:27.509Z,7.58
2022-09-23T04:15:27.467Z,7.58
2022-09-23T04:16:27.501Z,7.60
2022-09-23T04:17:27.479Z,7.62
2022-09-23T04:18:27.435Z,7.62
2022-09-23T04:19:27.480Z,7.62
2022-09-23T04:20:27.440Z,7.63
2022-09-23T04:21:27.421Z,7.63
2022-09-23T04:22:27.401Z,7.62
2022-09-23T04:23:27.505Z,7.62
2022-09-23T04:24:27.419Z,7.60
2022-09-23T04:25:27.412Z,7.60
2022-09-23T04:26:27.361Z,7.62
2022-09-23T04:27:27.355Z,7.63
2022-09-23T04:28:27.347Z,7.62
2022-09-23T04:29:27.353Z,7.62
2022-09-23T04:30:27.311Z,7.62
2022-09-23T04:31:27.379Z,7.60
2022-09-23T04:32:27.292Z,7.62
2022-09-23T04:33:27.305Z,7.60
2022-09-23T04:34:27.266Z,7.60
2022-09-23T04:35:27.928Z,7.58
2022-09-23T04:36:27.942Z,7.62
2022-09-23T04:37:27.962Z,7.62
2022-09-23T04:38:27.253Z,7.62
2022-09-23T04:39:27.245Z,7.60
2022-09-23T04:40:28.334Z,7.62
2022-09-23T04:41:27.232Z,7.60
2022-09-23T04:42:27.202Z,7.62
2022-09-23T04:43:27.223Z,7.66
2022-09-23T04:44:27.174Z,7.69
2022-09-23T04:45:27.163Z,7.69
2022-09-23T04:46:27.216Z,7.71
2022-09-23T04:47:27.131Z,7.70
2022-09-23T04:48:27.124Z,7.70
2022-09-23T04:49:27.130Z,7.71
2022-09-23T04:50:27.103Z,7.73
2022-09-23T04:51:27.093Z,7.71
2022-09-23T04:52:27.085Z,7.73
2022-09-23T04:53:27.060Z,7.71
2022-09-23T04:54:27.064Z,7.71
2022-09-23T04:55:27.069Z,7.73
2022-09-23T04:56:27.060Z,7.70
2022-09-23T04:57:27.021Z,7.70
2022-09-23T04:58:27.035Z,7.71
2022-09-23T04:59:27.025Z,7.70
2022-09-23T05:00:27.008Z,7.70
2022-09-23T05:01:27.290Z,7.71
2022-09-23T05:02:27.120Z,7.71
2022-09-23T05:03:26.972Z,7.69
2022-09-23T05:04:28.456Z,7.69
2022-09-23T05:05:27.058Z,7.69
2022-09-23T05:06:27.174Z,7.69
2022-09-23T05:07:27.005Z,7.69
2022-09-23T05:08:27.955Z,7.69
2022-09-23T05:09:26.924Z,7.71
2022-09-23T05:10:28.395Z,7.70
2022-09-23T05:11:26.965Z,7.70
2022-09-23T05:12:27.681Z,7.70
2022-09-23T05:13:26.876Z,7.73
2022-09-23T05:14:27.556Z,7.73
2022-09-23T05:15:26.855Z,7.71
2022-09-23T05:16:27.583Z,7.71
2022-09-23T05:17:26.832Z,7.73
2022-09-23T05:18:27.190Z,7.71
2022-09-23T05:19:26.823Z,7.73
2022-09-23T05:20:26.977Z,7.74
2022-09-23T05:21:26.783Z,7.74
2022-09-23T05:22:26.767Z,7.73
2022-09-23T05:23:26.767Z,7.74
2022-09-23T05:24:26.753Z,7.74
2022-09-23T05:25:26.723Z,7.73
2022-09-23T05:26:26.749Z,7.76
2022-09-23T05:27:26.827Z,7.76
2022-09-23T05:28:26.714Z,7.77
2022-09-23T05:29:26.717Z,7.79
2022-09-23T05:30:26.728Z,7.77
2022-09-23T05:31:26.747Z,7.79
2022-09-23T05:32:26.657Z,7.81
2022-09-23T05:33:26.649Z,7.81
2022-09-23T05:34:26.687Z,7.82
2022-09-23T05:35:26.640Z,7.84
2022-09-23T05:36:26.631Z,7.84
2022-09-23T05:37:26.618Z,7.84
2022-09-23T05:38:26.639Z,7.85
2022-09-23T05:39:26.574Z,7.86
2022-09-23T05:40:26.670Z,7.88
2022-09-23T05:41:26.605Z,7.89
2022-09-23T05:42:26.557Z,7.94
2022-09-23T05:43:26.655Z,7.94
2022-09-23T05:44:26.522Z,7.95
2022-09-23T05:45:27.456Z,7.96
2022-09-23T05:46:26.542Z,7.99
2022-09-23T05:47:27.209Z,7.96
2022-09-23T05:48:26.572Z,8.00
2022-09-23T05:49:42.841Z,8.02
2022-09-23T05:50:27.499Z,8.03
2022-09-23T05:51:30.768Z,8.04
2022-09-23T05:52:26.458Z,8.07
2022-09-23T05:53:27.146Z,8.09
2022-09-23T05:54:26.695Z,8.10
2022-09-23T05:55:26.607Z,8.10
2022-09-23T05:56:26.410Z,8.12
2022-09-23T05:57:27.110Z,8.14
2022-09-23T05:58:26.390Z,8.14
2022-09-23T05:59:27.060Z,8.14
2022-09-23T06:00:26.390Z,8.18
2022-09-23T06:01:26.740Z,8.21
2022-09-23T06:02:26.363Z,8.24
2022-09-23T06:03:27.923Z,8.24
2022-09-23T06:04:26.471Z,8.27
2022-09-23T06:05:26.310Z,8.29
2022-09-23T06:06:26.311Z,8.31
2022-09-23T06:07:26.298Z,8.32
2022-09-23T06:08:26.281Z,8.34
2022-09-23T06:09:26.311Z,8.39
2022-09-23T06:10:26.254Z,8.40
2022-09-23T06:11:26.281Z,8.43
2022-09-23T06:12:26.243Z,8.45
2022-09-23T06:13:26.224Z,8.46
2022-09-23T06:14:26.221Z,8.49
2022-09-23T06:15:26.198Z,8.52
2022-09-23T06:16:26.209Z,8.54
2022-09-23T06:17:26.186Z,8.55
2022-09-23T06:18:26.203Z,8.58
2022-09-23T06:19:26.167Z,8.61
2022-09-23T06:20:26.157Z,8.63
2022-09-23T06:21:26.155Z,8.65
2022-09-23T06:22:26.123Z,8.67
2022-09-23T06:23:26.768Z,8.71
2022-09-23T06:24:31.039Z,8.76
2022-09-23T06:25:27.108Z,8.82
2022-09-23T06:26:26.093Z,8.82
2022-09-23T06:27:26.085Z,8.83
2022-09-23T06:28:26.065Z,8.86
2022-09-23T06:29:26.084Z,8.89
2022-09-23T06:30:26.053Z,8.93
2022-09-23T06:31:26.077Z,8.97
2022-09-23T06:32:26.043Z,8.97
2022-09-23T06:33:35.037Z,9.00
2022-09-23T06:34:27.004Z,9.03
2022-09-23T06:35:27.705Z,9.06
2022-09-23T06:36:40.858Z,9.06
2022-09-23T06:37:26.979Z,9.10
2022-09-23T06:38:25.946Z,9.13
2022-09-23T06:39:25.974Z,9.15
2022-09-23T06:40:26.015Z,9.19
2022-09-23T06:41:25.947Z,9.20
2022-09-23T06:42:25.914Z,9.23
2022-09-23T06:43:25.901Z,9.26
2022-09-23T06:44:25.915Z,9.27
2022-09-23T06:45:25.886Z,9.31
2022-09-23T06:46:25.920Z,9.35
2022-09-23T06:47:25.865Z,9.38
2022-09-23T06:48:25.849Z,9.40
2022-09-23T06:49:25.855Z,9.42
2022-09-23T06:50:25.868Z,9.44
2022-09-23T06:51:25.819Z,9.45
2022-09-23T06:52:25.806Z,9.48
2022-09-23T06:53:25.792Z,9.52
2022-09-23T06:54:25.784Z,9.55
2022-09-23T06:55:25.776Z,9.58
2022-09-23T06:56:25.757Z,9.60
2022-09-23T06:57:25.775Z,9.63
2022-09-23T06:58:25.738Z,9.68
2022-09-23T06:59:25.736Z,9.70
2022-09-23T07:00:25.727Z,9.75
2022-09-23T07:01:25.732Z,9.80
2022-09-23T07:02:25.803Z,9.83
2022-09-23T07:03:25.735Z,9.89
2022-09-23T07:04:29.257Z,9.92
2022-09-23T07:05:25.678Z,9.95
2022-09-23T07:06:25.677Z,9.99
2022-09-23T07:07:25.635Z,10.04
2022-09-23T07:08:25.628Z,10.10
2022-09-23T07:09:25.648Z,10.13
2022-09-23T07:10:25.664Z,10.17
2022-09-23T07:11:25.618Z,10.22
2022-09-23T07:12:25.598Z,10.28
2022-09-23T07:13:25.565Z,10.31
2022-09-23T07:14:25.578Z,10.35
2022-09-23T07:15:25.558Z,10.42
2022-09-23T07:16:25.618Z,10.47
2022-09-23T07:17:25.539Z,10.51
2022-09-23T07:18:25.554Z,10.57
2022-09-23T07:19:25.529Z,10.63
2022-09-23T07:20:25.513Z,10.69
2022-09-23T07:21:25.515Z,10.75
2022-09-23T07:22:25.490Z,10.80
2022-09-23T07:23:25.479Z,10.86
2022-09-23T07:24:25.480Z,10.91
2022-09-23T07:25:25.450Z,10.95
2022-09-23T07:26:25.461Z,11.03
2022-09-23T07:27:25.427Z,11.09
2022-09-23T07:28:25.459Z,11.13
2022-09-23T07:29:25.480Z,11.20
2022-09-23T07:30:25.704Z,11.26
2022-09-23T07:31:37.545Z,11.33
2022-09-23T07:32:26.861Z,11.38
2022-09-23T07:33:32.255Z,11.44
2022-09-23T07:34:26.361Z,11.51
2022-09-23T07:35:25.327Z,11.54
2022-09-23T07:36:25.351Z,11.60
2022-09-23T07:37:25.322Z,11.64
2022-09-23T07:38:25.318Z,11.70
2022-09-23T07:39:25.303Z,11.77
2022-09-23T07:40:25.364Z,11.82
2022-09-23T07:41:25.293Z,11.87
2022-09-23T07:42:25.283Z,11.94
2022-09-23T07:43:25.263Z,11.98
2022-09-23T07:44:25.261Z,12.03
2022-09-23T07:45:25.243Z,12.08
2022-09-23T07:46:25.309Z,12.13
2022-09-23T07:47:25.223Z,12.21
2022-09-23T07:48:25.212Z,12.25
2022-09-23T07:49:25.200Z,12.30
2022-09-23T07:50:25.196Z,12.34
2022-09-23T07:51:25.194Z,12.38
2022-09-23T07:52:25.172Z,12.40
2022-09-23T07:53:25.153Z,12.46
2022-09-23T07:54:25.168Z,12.49
2022-09-23T07:55:25.135Z,12.54
2022-09-23T07:56:25.145Z,12.56
2022-09-23T07:57:25.124Z,12.59
2022-09-23T07:58:25.103Z,12.62
2022-09-23T07:59:25.115Z,12.69
2022-09-23T08:00:25.084Z,12.73
2022-09-23T08:01:25.126Z,12.76
2022-09-23T08:02:25.119Z,12.80
2022-09-23T08:03:25.045Z,12.85
2022-09-23T08:04:25.041Z,12.88
2022-09-23T08:05:25.026Z,12.94
2022-09-23T08:06:25.026Z,12.94
2022-09-23T08:07:25.006Z,12.96
2022-09-23T08:08:24.997Z,13.01
2022-09-23T08:09:25.004Z,13.06
2022-09-23T08:10:24.978Z,13.12
2022-09-23T08:11:24.978Z,13.13
2022-09-23T08:12:24.956Z,13.16
2022-09-23T08:13:24.947Z,13.19
2022-09-23T08:14:24.938Z,13.22
2022-09-23T08:15:24.958Z,13.27
2022-09-23T08:16:24.945Z,13.31
2022-09-23T08:17:24.909Z,13.32
2022-09-23T08:18:24.895Z,13.38
2022-09-23T08:19:24.897Z,13.41
2022-09-23T08:20:24.878Z,13.46
2022-09-23T08:21:24.844Z,13.47
2022-09-23T08:22:24.869Z,13.50
2022-09-23T08:23:24.842Z,13.51
2022-09-23T08:24:24.830Z,13.55
2022-09-23T08:25:24.839Z,13.59
2022-09-23T08:26:24.819Z,13.59
2022-09-23T08:27:24.796Z,13.62
2022-09-23T08:28:24.819Z,13.63
2022-09-23T08:29:24.778Z,13.66
2022-09-23T08:30:24.769Z,13.65
2022-09-23T08:31:24.786Z,13.69
2022-09-23T08:32:24.761Z,13.71
2022-09-23T08:33:24.751Z,13.71
2022-09-23T08:34:24.720Z,13.73
2022-09-23T08:35:24.710Z,13.79
2022-09-23T08:36:24.711Z,13.81
2022-09-23T08:37:24.701Z,13.84
2022-09-23T08:38:24.681Z,13.88
2022-09-23T08:39:24.662Z,13.93
2022-09-23T08:40:24.689Z,13.99
2022-09-23T08:41:24.650Z,14.02
2022-09-23T08:42:24.642Z,14.08
2022-09-23T08:43:24.608Z,14.11
2022-09-23T08:44:24.633Z,14.13
2022-09-23T08:45:24.590Z,14.17
2022-09-23T08:46:24.655Z,14.20
2022-09-23T08:47:24.607Z,14.23
2022-09-23T08:48:24.559Z,14.26
2022-09-23T08:49:24.554Z,14.29
2022-09-23T08:50:24.564Z,14.34
2022-09-23T08:51:24.533Z,14.35
2022-09-23T08:52:24.552Z,14.31
2022-09-23T08:53:24.514Z,14.36
2022-09-23T08:54:24.539Z,14.35
2022-09-23T08:55:24.494Z,14.39
2022-09-23T08:56:24.502Z,14.41
2022-09-23T08:57:24.474Z,14.44
2022-09-23T08:58:25.930Z,14.45
2022-09-23T08:59:24.454Z,14.42
2022-09-23T09:00:24.444Z,14.46
2022-09-23T09:01:24.488Z,14.48
2022-09-23T09:02:24.451Z,14.53
2022-09-23T09:03:24.529Z,14.57
2022-09-23T09:04:24.407Z,14.59
2022-09-23T09:05:24.405Z,14.61
2022-09-23T09:06:24.386Z,14.63
2022-09-23T09:07:36.150Z,14.66
2022-09-23T09:08:25.356Z,14.69
2022-09-23T09:09:24.347Z,14.72
2022-09-23T09:10:24.357Z,14.74
2022-09-23T09:11:24.317Z,14.75
2022-09-23T09:12:24.303Z,14.79
2022-09-23T09:13:24.299Z,14.79
2022-09-23T09:14:24.297Z,14.80
2022-09-23T09:15:25.433Z,14.83
2022-09-23T09:16:42.078Z,14.85
2022-09-23T09:17:25.278Z,14.85
2022-09-23T09:18:24.243Z,14.90
2022-09-23T09:19:24.237Z,14.90
2022-09-23T09:20:24.230Z,14.91
2022-09-23T09:21:24.219Z,14.93
2022-09-23T09:22:24.250Z,14.93
2022-09-23T09:23:24.195Z,14.94
2022-09-23T09:24:24.200Z,14.97
2022-09-23T09:25:24.172Z,14.98
2022-09-23T09:26:24.179Z,15.01
2022-09-23T09:27:24.151Z,15.03
2022-09-23T09:28:24.162Z,15.05
2022-09-23T09:29:34.748Z,15.04
2022-09-23T09:30:25.121Z,15.01
2022-09-23T09:31:24.264Z,15.03
2022-09-23T09:32:24.101Z,15.01
2022-09-23T09:33:24.116Z,15.04
2022-09-23T09:34:24.093Z,15.07
2022-09-23T09:35:24.073Z,15.12
2022-09-23T09:36:24.076Z,15.13
2022-09-23T09:37:24.044Z,15.15
2022-09-23T09:38:24.054Z,15.19
2022-09-23T09:39:26.230Z,15.25
2022-09-23T09:40:24.056Z,15.31
2022-09-23T09:41:23.988Z,15.35
2022-09-23T09:42:23.988Z,15.41
2022-09-23T09:43:24.000Z,15.46
2022-09-23T09:44:23.973Z,15.52
2022-09-23T09:45:23.984Z,15.58
2022-09-23T09:46:24.097Z,15.62
2022-09-23T09:47:23.931Z,15.66
2022-09-23T09:48:23.934Z,15.68
2022-09-23T09:49:23.916Z,15.73
2022-09-23T09:50:23.923Z,15.76
2022-09-23T09:51:23.904Z,15.80
2022-09-23T09:52:23.885Z,15.84
2022-09-23T09:53:23.829Z,15.86
2022-09-23T09:54:23.821Z,15.91
2022-09-23T09:55:23.831Z,15.92
2022-09-23T09:56:23.804Z,15.93
2022-09-23T09:57:23.779Z,15.96
2022-09-23T09:58:23.758Z,15.99
2022-09-23T09:59:23.789Z,16.03
2022-09-23T10:00:23.750Z,16.06
2022-09-23T10:01:23.786Z,16.08
2022-09-23T10:02:23.733Z,16.11
2022-09-23T10:03:23.711Z,16.16
2022-09-23T10:04:23.741Z,16.18
2022-09-23T10:05:23.713Z,16.23
2022-09-23T10:06:23.689Z,16.23
2022-09-23T10:07:23.669Z,16.26
2022-09-23T10:08:23.679Z,16.32
2022-09-23T10:09:23.649Z,16.37
2022-09-23T10:10:32.296Z,16.41
2022-09-23T10:11:24.638Z,16.47
2022-09-23T10:12:23.618Z,16.52
2022-09-23T10:13:23.620Z,16.54
2022-09-23T10:14:23.596Z,16.57
2022-09-23T10:15:23.579Z,16.62
2022-09-23T10:16:23.648Z,16.67
2022-09-23T10:17:23.560Z,16.70
2022-09-23T10:18:23.550Z,16.70
2022-09-23T10:19:23.551Z,16.70
2022-09-23T10:20:23.530Z,16.69
2022-09-23T10:21:27.774Z,16.72
2022-09-23T10:22:23.494Z,16.73
2022-09-23T10:23:23.489Z,16.77
2022-09-23T10:24:23.499Z,16.84
2022-09-23T10:25:23.474Z,16.90
2022-09-23T10:26:23.459Z,16.95
2022-09-23T10:27:23.517Z,17.00
2022-09-23T10:28:23.460Z,17.02
2022-09-23T10:29:23.430Z,17.00
2022-09-23T10:30:23.436Z,17.05
2022-09-23T10:31:23.433Z,17.09
2022-09-23T10:32:23.404Z,17.14
2022-09-23T10:33:23.369Z,17.14
2022-09-23T10:34:23.381Z,17.14
2022-09-23T10:35:23.363Z,17.20
2022-09-23T10:36:23.349Z,17.22
2022-09-23T10:37:23.344Z,17.25
2022-09-23T10:38:23.336Z,17.32
2022-09-23T10:39:23.326Z,17.35
2022-09-23T10:40:23.342Z,17.39
2022-09-23T10:41:23.302Z,17.42
2022-09-23T10:42:23.309Z,17.49
2022-09-23T10:43:23.300Z,17.57
2022-09-23T10:44:23.281Z,17.65
2022-09-23T10:45:23.261Z,17.71
2022-09-23T10:46:23.315Z,17.79
2022-09-23T10:47:23.243Z,17.87
2022-09-23T10:48:23.253Z,17.96
2022-09-23T10:49:23.234Z,18.04
2022-09-23T10:50:23.224Z,18.13
2022-09-23T10:51:26.124Z,18.23
2022-09-23T10:52:23.196Z,18.32
2022-09-23T10:53:23.184Z,18.38
2022-09-23T10:54:23.233Z,18.47
2022-09-23T10:55:23.144Z,18.53
2022-09-23T10:56:23.160Z,18.57
2022-09-23T10:57:23.141Z,18.62
2022-09-23T10:58:23.132Z,18.64
2022-09-23T10:59:23.163Z,18.64
2022-09-23T11:00:23.237Z,18.66
2022-09-23T11:01:23.152Z,18.69
2022-09-23T11:02:23.099Z,18.76
2022-09-23T11:03:23.083Z,18.89
2022-09-23T11:04:23.126Z,18.94
2022-09-23T11:05:23.082Z,19.02
2022-09-23T11:06:23.066Z,19.10
2022-09-23T11:07:23.046Z,19.13
2022-09-23T11:08:23.013Z,19.21
2022-09-23T11:09:23.017Z,19.27
2022-09-23T11:10:42.217Z,19.34
2022-09-23T11:11:24.009Z,19.40
2022-09-23T11:12:22.990Z,19.49
2022-09-23T11:13:22.990Z,19.55
2022-09-23T11:14:22.971Z,19.62
2022-09-23T11:15:22.960Z,19.70
2022-09-23T11:16:22.996Z,19.72
2022-09-23T11:17:22.933Z,19.75
2022-09-23T11:18:22.932Z,19.83
2022-09-23T11:19:22.924Z,19.94
2022-09-23T11:20:22.904Z,20.04
2022-09-23T11:21:22.905Z,20.12
2022-09-23T11:22:22.906Z,20.02
2022-09-23T11:23:22.887Z,20.04
2022-09-23T11:24:22.895Z,20.08
2022-09-23T11:25:22.848Z,20.13
2022-09-23T11:26:22.939Z,20.19
2022-09-23T11:27:22.857Z,20.25
2022-09-23T11:28:22.821Z,20.27
2022-09-23T11:29:22.810Z,20.30
2022-09-23T11:30:22.854Z,20.35
2022-09-23T11:31:22.912Z,20.46
2022-09-23T11:32:22.788Z,20.54
2022-09-23T11:33:22.781Z,20.64
2022-09-23T11:34:22.762Z,20.69
2022-09-23T11:35:22.773Z,20.75
2022-09-23T11:36:22.743Z,20.81
2022-09-23T11:37:22.733Z,20.79
2022-09-23T11:38:22.734Z,20.78
2022-09-23T11:39:22.718Z,20.83
2022-09-23T11:40:22.765Z,20.79
2022-09-23T11:41:22.686Z,20.85
2022-09-23T11:42:22.677Z,20.97
2022-09-23T11:43:22.686Z,21.12
2022-09-23T11:44:22.667Z,21.15
2022-09-23T11:45:22.648Z,21.19
2022-09-23T11:46:22.706Z,21.27
2022-09-23T11:47:22.631Z,21.33
2022-09-23T11:48:22.610Z,21.43
2022-09-23T11:49:22.610Z,21.46
2022-09-23T11:50:22.591Z,21.61
2022-09-23T11:51:22.581Z,21.77
2022-09-23T11:52:22.591Z,22.02
2022-09-23T11:53:22.572Z,22.23
2022-09-23T11:54:22.538Z,22.45
2022-09-23T11:55:23.434Z,22.66
2022-09-23T11:56:32.216Z,22.93
2022-09-23T11:57:23.523Z,23.21
2022-09-23T11:58:25.869Z,23.54
2022-09-23T11:59:34.363Z,23.93
2022-09-23T12:00:23.485Z,24.42
2022-09-23T12:01:33.153Z,25.08
2022-09-23T12:02:27.002Z,25.90
2022-09-23T12:03:31.746Z,26.90
2022-09-23T12:04:24.299Z,28.02
2022-09-23T12:05:22.507Z,29.17
2022-09-23T12:06:22.437Z,30.32
2022-09-23T12:07:22.452Z,31.42
2022-09-23T12:08:22.414Z,32.47
2022-09-23T12:09:40.987Z,32.47
2022-09-23T12:10:23.390Z,33.43
2022-09-23T12:11:22.381Z,33.97
2022-09-23T12:12:26.861Z,34.76
2022-09-23T12:13:22.354Z,35.68
2022-09-23T12:14:22.342Z,36.64
2022-09-23T12:15:22.353Z,37.54
2022-09-23T12:16:22.435Z,38.33
2022-09-23T12:17:22.321Z,38.97
2022-09-23T12:18:23.281Z,39.63
2022-09-23T12:19:22.296Z,38.79
2022-09-23T12:20:22.289Z,37.97
2022-09-23T12:21:46.239Z,37.62
2022-09-23T12:22:23.549Z,37.97
2022-09-23T12:23:22.278Z,38.82
2022-09-23T12:24:22.252Z,39.27
2022-09-23T12:25:22.232Z,39.63
2022-09-23T12:26:22.230Z,40.22
2022-09-23T12:27:22.221Z,40.51
2022-09-23T12:28:22.492Z,40.80
2022-09-23T12:29:22.278Z,40.91
2022-09-23T12:30:22.284Z,41.12
2022-09-23T12:31:22.167Z,40.97
2022-09-23T12:32:22.185Z,40.83
2022-09-23T12:33:22.155Z,40.51
2022-09-23T12:34:22.146Z,40.45
2022-09-23T12:35:22.136Z,40.61
2022-09-23T12:36:22.126Z,40.78
2022-09-23T12:37:22.115Z,40.83
2022-09-23T12:38:22.119Z,40.76
2022-09-23T12:39:22.109Z,40.80
2022-09-23T12:40:22.115Z,41.01
2022-09-23T12:41:22.096Z,41.31
2022-09-23T12:42:22.090Z,41.57
2022-09-23T12:43:22.068Z,41.60
2022-09-23T12:44:22.330Z,41.60
2022-09-23T12:45:22.051Z,41.39
2022-09-23T12:46:22.052Z,41.05
2022-09-23T12:47:22.042Z,40.94
2022-09-23T12:48:22.167Z,41.05
2022-09-23T12:49:22.028Z,41.41
2022-09-23T12:50:24.399Z,41.38
2022-09-23T12:51:21.994Z,41.42
2022-09-23T12:52:21.995Z,41.58
2022-09-23T12:53:21.975Z,41.57
2022-09-23T12:54:21.942Z,41.60
2022-09-23T12:55:21.984Z,41.46
2022-09-23T12:56:21.946Z,40.91
2022-09-23T12:57:21.937Z,40.15
2022-09-23T12:58:21.940Z,39.59
2022-09-23T12:59:21.925Z,39.65
2022-09-23T13:00:21.908Z,39.70
2022-09-23T13:01:22.095Z,39.80
2022-09-23T13:02:22.026Z,39.90
2022-09-23T13:03:21.902Z,40.11
2022-09-23T13:04:21.873Z,40.61
2022-09-23T13:05:21.864Z,40.73
2022-09-23T13:06:21.853Z,41.00